sensor_id;sensor_type;location;lat;lon;timestamp;P1;durP1;ratioP1;P2;durP2;ratioP2
52368;SDS011;38298;50.346;3.526;2023-08-08T00:02:20;4.90;;;1.40;;
52368;SDS011;38298;50.346;3.526;2023-08-08T00:04:46;3.78;;;1.23;;
52368;SDS011;38298;50.346;3.526;2023-08-08T00:07:12;2.78;;;1.20;;
52368;SDS011;38298;50.346;3.526;2023-08-08T00:09:38;5.03;;;1.27;;
52368;SDS011;38298;50.346;3.526;2023-08-08T00:12:04;5.90;;;1.10;;
52368;SDS011;38298;50.346;3.526;2023-08-08T00:14:30;7.20;;;1.40;;
52368;SDS011;38298;50.346;3.526;2023-08-08T00:16:56;4.28;;;1.50;;
52368;SDS011;38298;50.346;3.526;2023-08-08T00:19:22;6.32;;;1.67;;
52368;SDS011;38298;50.346;3.526;2023-08-08T00:21:48;5.60;;;1.55;;
52368;SDS011;38298;50.346;3.526;2023-08-08T00:24:14;3.53;;;1.30;;
52368;SDS011;38298;50.346;3.526;2023-08-08T00:26:40;5.93;;;1.35;;
52368;SDS011;38298;50.346;3.526;2023-08-08T00:29:06;4.13;;;1.40;;
52368;SDS011;38298;50.346;3.526;2023-08-08T00:31:32;3.78;;;1.42;;
52368;SDS011;38298;50.346;3.526;2023-08-08T00:33:58;9.13;;;2.08;;
52368;SDS011;38298;50.346;3.526;2023-08-08T00:36:24;3.25;;;1.60;;
52368;SDS011;38298;50.346;3.526;2023-08-08T00:38:50;4.80;;;1.70;;
52368;SDS011;38298;50.346;3.526;2023-08-08T00:41:16;5.15;;;2.03;;
52368;SDS011;38298;50.346;3.526;2023-08-08T00:43:42;8.38;;;1.67;;
52368;SDS011;38298;50.346;3.526;2023-08-08T00:46:08;8.27;;;1.45;;
52368;SDS011;38298;50.346;3.526;2023-08-08T00:48:34;2.92;;;1.25;;
52368;SDS011;38298;50.346;3.526;2023-08-08T00:51:00;5.72;;;1.58;;
52368;SDS011;38298;50.346;3.526;2023-08-08T00:53:27;8.15;;;2.08;;
52368;SDS011;38298;50.346;3.526;2023-08-08T00:55:56;4.47;;;1.50;;
52368;SDS011;38298;50.346;3.526;2023-08-08T00:58:21;10.18;;;1.70;;
52368;SDS011;38298;50.346;3.526;2023-08-08T01:00:47;2.55;;;1.20;;
52368;SDS011;38298;50.346;3.526;2023-08-08T01:03:13;4.80;;;1.60;;
52368;SDS011;38298;50.346;3.526;2023-08-08T01:08:26;7.35;;;2.40;;
52368;SDS011;38298;50.346;3.526;2023-08-08T01:10:53;4.63;;;2.15;;
52368;SDS011;38298;50.346;3.526;2023-08-08T01:13:22;4.05;;;1.33;;
52368;SDS011;38298;50.346;3.526;2023-08-08T01:15:49;5.00;;;1.52;;
52368;SDS011;38298;50.346;3.526;2023-08-08T01:18:15;5.75;;;1.38;;
52368;SDS011;38298;50.346;3.526;2023-08-08T01:20:42;5.32;;;1.27;;
52368;SDS011;38298;50.346;3.526;2023-08-08T01:23:19;5.38;;;1.60;;
52368;SDS011;38298;50.346;3.526;2023-08-08T01:25:46;6.32;;;1.55;;
52368;SDS011;38298;50.346;3.526;2023-08-08T01:28:12;4.25;;;1.70;;
52368;SDS011;38298;50.346;3.526;2023-08-08T01:30:38;3.33;;;1.60;;
52368;SDS011;38298;50.346;3.526;2023-08-08T01:33:04;8.35;;;1.63;;
52368;SDS011;38298;50.346;3.526;2023-08-08T01:35:32;3.38;;;1.33;;
52368;SDS011;38298;50.346;3.526;2023-08-08T01:38:11;4.38;;;1.30;;
52368;SDS011;38298;50.346;3.526;2023-08-08T01:40:38;3.40;;;1.25;;
52368;SDS011;38298;50.346;3.526;2023-08-08T01:43:06;7.93;;;1.60;;
52368;SDS011;38298;50.346;3.526;2023-08-08T01:45:32;10.73;;;2.10;;
52368;SDS011;38298;50.346;3.526;2023-08-08T01:47:58;7.20;;;2.20;;
52368;SDS011;38298;50.346;3.526;2023-08-08T01:50:24;9.43;;;1.45;;
52368;SDS011;38298;50.346;3.526;2023-08-08T01:52:50;3.40;;;1.40;;
52368;SDS011;38298;50.346;3.526;2023-08-08T01:55:16;6.65;;;1.48;;
52368;SDS011;38298;50.346;3.526;2023-08-08T01:57:42;7.97;;;1.80;;
52368;SDS011;38298;50.346;3.526;2023-08-08T02:00:08;5.47;;;1.60;;
52368;SDS011;38298;50.346;3.526;2023-08-08T02:02:34;4.50;;;1.40;;
52368;SDS011;38298;50.346;3.526;2023-08-08T02:05:01;6.88;;;1.60;;
52368;SDS011;38298;50.346;3.526;2023-08-08T02:07:27;8.63;;;1.75;;
52368;SDS011;38298;50.346;3.526;2023-08-08T02:09:53;10.05;;;1.58;;
52368;SDS011;38298;50.346;3.526;2023-08-08T02:12:20;3.63;;;1.25;;
52368;SDS011;38298;50.346;3.526;2023-08-08T02:14:46;5.25;;;1.25;;
52368;SDS011;38298;50.346;3.526;2023-08-08T02:17:12;6.22;;;1.80;;
52368;SDS011;38298;50.346;3.526;2023-08-08T02:19:38;6.72;;;1.70;;
52368;SDS011;38298;50.346;3.526;2023-08-08T02:22:04;6.75;;;1.70;;
52368;SDS011;38298;50.346;3.526;2023-08-08T02:24:30;3.90;;;1.60;;
52368;SDS011;38298;50.346;3.526;2023-08-08T02:26:56;7.05;;;1.52;;
52368;SDS011;38298;50.346;3.526;2023-08-08T02:29:22;5.03;;;1.38;;
52368;SDS011;38298;50.346;3.526;2023-08-08T02:31:51;2.88;;;1.42;;
52368;SDS011;38298;50.346;3.526;2023-08-08T02:34:17;5.90;;;1.50;;
52368;SDS011;38298;50.346;3.526;2023-08-08T02:36:43;7.72;;;1.52;;
52368;SDS011;38298;50.346;3.526;2023-08-08T02:39:09;5.70;;;1.50;;
52368;SDS011;38298;50.346;3.526;2023-08-08T02:41:35;10.95;;;1.70;;
52368;SDS011;38298;50.346;3.526;2023-08-08T02:44:01;8.30;;;1.70;;
52368;SDS011;38298;50.346;3.526;2023-08-08T02:46:27;5.05;;;1.45;;
52368;SDS011;38298;50.346;3.526;2023-08-08T02:48:53;4.32;;;1.20;;
52368;SDS011;38298;50.346;3.526;2023-08-08T02:51:19;6.93;;;2.00;;
52368;SDS011;38298;50.346;3.526;2023-08-08T02:53:45;5.20;;;1.80;;
52368;SDS011;38298;50.346;3.526;2023-08-08T02:56:11;5.53;;;1.65;;
52368;SDS011;38298;50.346;3.526;2023-08-08T02:58:37;3.40;;;1.92;;
52368;SDS011;38298;50.346;3.526;2023-08-08T03:01:03;2.72;;;1.30;;
52368;SDS011;38298;50.346;3.526;2023-08-08T03:03:29;4.35;;;1.60;;
52368;SDS011;38298;50.346;3.526;2023-08-08T03:05:55;7.35;;;1.58;;
52368;SDS011;38298;50.346;3.526;2023-08-08T03:08:21;3.53;;;1.55;;
52368;SDS011;38298;50.346;3.526;2023-08-08T03:10:47;6.90;;;1.50;;
52368;SDS011;38298;50.346;3.526;2023-08-08T03:13:13;8.20;;;1.60;;
52368;SDS011;38298;50.346;3.526;2023-08-08T03:15:39;10.23;;;1.75;;
52368;SDS011;38298;50.346;3.526;2023-08-08T03:18:05;3.70;;;1.73;;
52368;SDS011;38298;50.346;3.526;2023-08-08T03:20:31;4.72;;;1.65;;
52368;SDS011;38298;50.346;3.526;2023-08-08T03:22:57;6.03;;;1.70;;
52368;SDS011;38298;50.346;3.526;2023-08-08T03:25:23;8.60;;;1.70;;
52368;SDS011;38298;50.346;3.526;2023-08-08T03:27:49;4.85;;;1.58;;
52368;SDS011;38298;50.346;3.526;2023-08-08T03:30:16;6.03;;;1.45;;
52368;SDS011;38298;50.346;3.526;2023-08-08T03:32:41;10.73;;;2.20;;
52368;SDS011;38298;50.346;3.526;2023-08-08T03:35:08;10.10;;;1.63;;
52368;SDS011;38298;50.346;3.526;2023-08-08T03:37:34;5.97;;;1.55;;
52368;SDS011;38298;50.346;3.526;2023-08-08T03:40:00;4.40;;;1.55;;
52368;SDS011;38298;50.346;3.526;2023-08-08T03:42:26;5.07;;;1.50;;
52368;SDS011;38298;50.346;3.526;2023-08-08T03:44:52;8.60;;;1.52;;
52368;SDS011;38298;50.346;3.526;2023-08-08T03:47:18;6.57;;;2.10;;
52368;SDS011;38298;50.346;3.526;2023-08-08T03:49:44;5.43;;;1.80;;
52368;SDS011;38298;50.346;3.526;2023-08-08T03:52:10;6.30;;;1.80;;
52368;SDS011;38298;50.346;3.526;2023-08-08T03:54:36;6.43;;;1.65;;
52368;SDS011;38298;50.346;3.526;2023-08-08T03:57:02;7.78;;;1.70;;
52368;SDS011;38298;50.346;3.526;2023-08-08T03:59:28;4.32;;;2.03;;
52368;SDS011;38298;50.346;3.526;2023-08-08T04:01:54;5.43;;;1.42;;
52368;SDS011;38298;50.346;3.526;2023-08-08T04:04:20;6.13;;;1.60;;
52368;SDS011;38298;50.346;3.526;2023-08-08T04:06:46;4.88;;;1.77;;
52368;SDS011;38298;50.346;3.526;2023-08-08T04:09:12;10.30;;;1.70;;
52368;SDS011;38298;50.346;3.526;2023-08-08T04:11:38;8.63;;;1.73;;
52368;SDS011;38298;50.346;3.526;2023-08-08T04:14:04;9.35;;;1.58;;
52368;SDS011;38298;50.346;3.526;2023-08-08T04:16:30;6.68;;;1.90;;
52368;SDS011;38298;50.346;3.526;2023-08-08T04:18:56;6.07;;;2.05;;
52368;SDS011;38298;50.346;3.526;2023-08-08T04:21:24;9.05;;;1.77;;
52368;SDS011;38298;50.346;3.526;2023-08-08T04:23:52;5.97;;;1.70;;
52368;SDS011;38298;50.346;3.526;2023-08-08T04:26:18;5.93;;;1.52;;
52368;SDS011;38298;50.346;3.526;2023-08-08T04:28:44;14.68;;;2.25;;
52368;SDS011;38298;50.346;3.526;2023-08-08T04:31:10;10.32;;;2.10;;
52368;SDS011;38298;50.346;3.526;2023-08-08T04:33:39;6.80;;;1.60;;
52368;SDS011;38298;50.346;3.526;2023-08-08T04:36:05;8.13;;;1.58;;
52368;SDS011;38298;50.346;3.526;2023-08-08T04:38:31;7.80;;;1.65;;
52368;SDS011;38298;50.346;3.526;2023-08-08T04:40:57;7.10;;;1.98;;
52368;SDS011;38298;50.346;3.526;2023-08-08T04:43:23;8.57;;;1.77;;
52368;SDS011;38298;50.346;3.526;2023-08-08T04:45:49;5.70;;;1.48;;
52368;SDS011;38298;50.346;3.526;2023-08-08T04:48:15;10.77;;;1.67;;
52368;SDS011;38298;50.346;3.526;2023-08-08T04:50:41;11.15;;;2.10;;
52368;SDS011;38298;50.346;3.526;2023-08-08T04:53:07;9.27;;;1.67;;
52368;SDS011;38298;50.346;3.526;2023-08-08T04:55:33;11.65;;;2.08;;
52368;SDS011;38298;50.346;3.526;2023-08-08T04:57:59;5.72;;;1.42;;
52368;SDS011;38298;50.346;3.526;2023-08-08T05:00:25;6.53;;;2.15;;
52368;SDS011;38298;50.346;3.526;2023-08-08T05:02:52;4.13;;;1.77;;
52368;SDS011;38298;50.346;3.526;2023-08-08T05:05:18;7.07;;;1.70;;
52368;SDS011;38298;50.346;3.526;2023-08-08T05:07:44;6.28;;;1.95;;
52368;SDS011;38298;50.346;3.526;2023-08-08T05:10:10;6.90;;;1.70;;
52368;SDS011;38298;50.346;3.526;2023-08-08T05:12:36;6.45;;;1.83;;
52368;SDS011;38298;50.346;3.526;2023-08-08T05:15:02;4.75;;;1.80;;
52368;SDS011;38298;50.346;3.526;2023-08-08T05:17:29;4.88;;;1.98;;
52368;SDS011;38298;50.346;3.526;2023-08-08T05:19:57;6.70;;;1.55;;
52368;SDS011;38298;50.346;3.526;2023-08-08T05:22:23;15.38;;;1.65;;
52368;SDS011;38298;50.346;3.526;2023-08-08T05:24:49;8.73;;;2.13;;
52368;SDS011;38298;50.346;3.526;2023-08-08T05:27:15;4.65;;;1.42;;
52368;SDS011;38298;50.346;3.526;2023-08-08T05:29:41;10.20;;;1.95;;
52368;SDS011;38298;50.346;3.526;2023-08-08T05:32:07;6.70;;;1.60;;
52368;SDS011;38298;50.346;3.526;2023-08-08T05:34:33;7.18;;;1.75;;
52368;SDS011;38298;50.346;3.526;2023-08-08T05:36:59;3.58;;;1.40;;
52368;SDS011;38298;50.346;3.526;2023-08-08T05:39:25;3.88;;;1.50;;
52368;SDS011;38298;50.346;3.526;2023-08-08T05:41:52;10.90;;;2.75;;
52368;SDS011;38298;50.346;3.526;2023-08-08T05:44:18;4.63;;;1.58;;
52368;SDS011;38298;50.346;3.526;2023-08-08T05:46:44;7.68;;;1.75;;
52368;SDS011;38298;50.346;3.526;2023-08-08T05:49:10;9.05;;;1.65;;
52368;SDS011;38298;50.346;3.526;2023-08-08T05:51:36;9.45;;;1.90;;
52368;SDS011;38298;50.346;3.526;2023-08-08T05:54:02;7.32;;;1.88;;
52368;SDS011;38298;50.346;3.526;2023-08-08T05:56:34;5.22;;;1.42;;
52368;SDS011;38298;50.346;3.526;2023-08-08T05:59:01;9.55;;;1.90;;
52368;SDS011;38298;50.346;3.526;2023-08-08T06:01:27;6.55;;;1.77;;
52368;SDS011;38298;50.346;3.526;2023-08-08T06:03:53;7.60;;;2.42;;
52368;SDS011;38298;50.346;3.526;2023-08-08T06:06:19;9.70;;;1.80;;
52368;SDS011;38298;50.346;3.526;2023-08-08T06:08:45;4.82;;;1.75;;
52368;SDS011;38298;50.346;3.526;2023-08-08T06:11:11;10.05;;;1.90;;
52368;SDS011;38298;50.346;3.526;2023-08-08T06:13:37;8.27;;;1.95;;
52368;SDS011;38298;50.346;3.526;2023-08-08T06:16:03;6.97;;;2.15;;
52368;SDS011;38298;50.346;3.526;2023-08-08T06:18:33;10.52;;;2.92;;
52368;SDS011;38298;50.346;3.526;2023-08-08T06:20:59;12.38;;;2.22;;
52368;SDS011;38298;50.346;3.526;2023-08-08T06:23:25;10.32;;;1.90;;
52368;SDS011;38298;50.346;3.526;2023-08-08T06:25:51;9.52;;;1.70;;
52368;SDS011;38298;50.346;3.526;2023-08-08T06:28:17;9.43;;;1.80;;
52368;SDS011;38298;50.346;3.526;2023-08-08T06:30:43;4.18;;;1.42;;
52368;SDS011;38298;50.346;3.526;2023-08-08T06:33:09;5.90;;;1.98;;
52368;SDS011;38298;50.346;3.526;2023-08-08T06:35:35;5.40;;;1.55;;
52368;SDS011;38298;50.346;3.526;2023-08-08T06:38:01;6.18;;;1.35;;
52368;SDS011;38298;50.346;3.526;2023-08-08T06:40:27;11.98;;;1.80;;
52368;SDS011;38298;50.346;3.526;2023-08-08T06:42:53;8.57;;;1.70;;
52368;SDS011;38298;50.346;3.526;2023-08-08T06:45:20;9.98;;;1.67;;
52368;SDS011;38298;50.346;3.526;2023-08-08T06:47:46;7.20;;;2.10;;
52368;SDS011;38298;50.346;3.526;2023-08-08T06:50:12;7.65;;;1.60;;
52368;SDS011;38298;50.346;3.526;2023-08-08T06:52:38;4.75;;;1.30;;
52368;SDS011;38298;50.346;3.526;2023-08-08T06:55:04;6.20;;;1.48;;
52368;SDS011;38298;50.346;3.526;2023-08-08T06:57:32;10.38;;;1.52;;
52368;SDS011;38298;50.346;3.526;2023-08-08T06:59:58;6.97;;;1.83;;
52368;SDS011;38298;50.346;3.526;2023-08-08T07:02:24;6.47;;;1.50;;
52368;SDS011;38298;50.346;3.526;2023-08-08T07:04:50;10.52;;;1.95;;
52368;SDS011;38298;50.346;3.526;2023-08-08T07:07:16;7.55;;;1.88;;
52368;SDS011;38298;50.346;3.526;2023-08-08T07:09:42;4.38;;;1.25;;
52368;SDS011;38298;50.346;3.526;2023-08-08T07:12:08;7.38;;;1.70;;
52368;SDS011;38298;50.346;3.526;2023-08-08T07:14:34;9.23;;;1.40;;
52368;SDS011;38298;50.346;3.526;2023-08-08T07:17:00;8.43;;;1.50;;
52368;SDS011;38298;50.346;3.526;2023-08-08T07:19:28;7.85;;;1.52;;
52368;SDS011;38298;50.346;3.526;2023-08-08T07:21:54;9.60;;;1.70;;
52368;SDS011;38298;50.346;3.526;2023-08-08T07:24:20;7.38;;;1.85;;
52368;SDS011;38298;50.346;3.526;2023-08-08T07:26:47;4.68;;;1.40;;
52368;SDS011;38298;50.346;3.526;2023-08-08T07:29:13;9.98;;;2.22;;
52368;SDS011;38298;50.346;3.526;2023-08-08T07:31:40;12.07;;;1.92;;
52368;SDS011;38298;50.346;3.526;2023-08-08T07:34:06;10.90;;;1.52;;
52368;SDS011;38298;50.346;3.526;2023-08-08T07:36:32;7.20;;;1.52;;
52368;SDS011;38298;50.346;3.526;2023-08-08T07:38:58;10.00;;;2.13;;
52368;SDS011;38298;50.346;3.526;2023-08-08T07:41:29;8.88;;;1.70;;
52368;SDS011;38298;50.346;3.526;2023-08-08T07:43:55;5.65;;;1.95;;
52368;SDS011;38298;50.346;3.526;2023-08-08T07:46:21;3.92;;;1.40;;
52368;SDS011;38298;50.346;3.526;2023-08-08T07:48:48;4.60;;;1.38;;
52368;SDS011;38298;50.346;3.526;2023-08-08T07:51:14;6.18;;;1.40;;
52368;SDS011;38298;50.346;3.526;2023-08-08T07:53:40;6.32;;;1.50;;
52368;SDS011;38298;50.346;3.526;2023-08-08T07:56:06;5.80;;;1.30;;
52368;SDS011;38298;50.346;3.526;2023-08-08T07:58:32;6.47;;;1.30;;
52368;SDS011;38298;50.346;3.526;2023-08-08T08:00:58;12.73;;;1.58;;
52368;SDS011;38298;50.346;3.526;2023-08-08T08:03:25;12.02;;;2.00;;
52368;SDS011;38298;50.346;3.526;2023-08-08T08:05:52;8.02;;;1.02;;
52368;SDS011;38298;50.346;3.526;2023-08-08T08:08:18;5.38;;;1.35;;
52368;SDS011;38298;50.346;3.526;2023-08-08T08:10:44;7.68;;;1.45;;
52368;SDS011;38298;50.346;3.526;2023-08-08T08:13:11;9.35;;;1.42;;
52368;SDS011;38298;50.346;3.526;2023-08-08T08:15:37;11.38;;;1.63;;
52368;SDS011;38298;50.346;3.526;2023-08-08T08:18:03;5.70;;;1.33;;
52368;SDS011;38298;50.346;3.526;2023-08-08T08:20:29;7.65;;;1.50;;
52368;SDS011;38298;50.346;3.526;2023-08-08T08:22:55;4.22;;;1.45;;
52368;SDS011;38298;50.346;3.526;2023-08-08T08:25:21;5.90;;;1.42;;
52368;SDS011;38298;50.346;3.526;2023-08-08T08:27:47;8.40;;;1.55;;
52368;SDS011;38298;50.346;3.526;2023-08-08T08:30:13;8.00;;;1.42;;
52368;SDS011;38298;50.346;3.526;2023-08-08T08:32:40;7.88;;;1.60;;
52368;SDS011;38298;50.346;3.526;2023-08-08T08:35:06;11.38;;;1.33;;
52368;SDS011;38298;50.346;3.526;2023-08-08T08:37:33;9.63;;;1.10;;
52368;SDS011;38298;50.346;3.526;2023-08-08T08:39:59;5.05;;;1.05;;
52368;SDS011;38298;50.346;3.526;2023-08-08T08:42:28;5.97;;;1.50;;
52368;SDS011;38298;50.346;3.526;2023-08-08T08:44:56;10.02;;;1.63;;
52368;SDS011;38298;50.346;3.526;2023-08-08T08:47:22;7.47;;;1.30;;
52368;SDS011;38298;50.346;3.526;2023-08-08T08:49:49;6.45;;;1.30;;
52368;SDS011;38298;50.346;3.526;2023-08-08T08:52:17;5.32;;;1.10;;
52368;SDS011;38298;50.346;3.526;2023-08-08T08:54:43;6.75;;;1.40;;
52368;SDS011;38298;50.346;3.526;2023-08-08T08:57:09;6.10;;;1.45;;
52368;SDS011;38298;50.346;3.526;2023-08-08T08:59:35;7.55;;;1.67;;
52368;SDS011;38298;50.346;3.526;2023-08-08T09:02:01;7.05;;;1.15;;
52368;SDS011;38298;50.346;3.526;2023-08-08T09:04:28;6.45;;;0.95;;
52368;SDS011;38298;50.346;3.526;2023-08-08T09:06:54;8.00;;;1.52;;
52368;SDS011;38298;50.346;3.526;2023-08-08T09:09:20;4.07;;;0.95;;
52368;SDS011;38298;50.346;3.526;2023-08-08T09:11:48;4.60;;;1.15;;
52368;SDS011;38298;50.346;3.526;2023-08-08T09:14:22;4.57;;;1.02;;
52368;SDS011;38298;50.346;3.526;2023-08-08T09:16:48;4.03;;;0.88;;
52368;SDS011;38298;50.346;3.526;2023-08-08T09:19:15;6.78;;;1.25;;
52368;SDS011;38298;50.346;3.526;2023-08-08T09:21:42;5.82;;;1.20;;
52368;SDS011;38298;50.346;3.526;2023-08-08T09:24:08;6.25;;;1.00;;
52368;SDS011;38298;50.346;3.526;2023-08-08T09:26:34;3.42;;;1.00;;
52368;SDS011;38298;50.346;3.526;2023-08-08T09:29:01;7.78;;;1.20;;
52368;SDS011;38298;50.346;3.526;2023-08-08T09:31:28;6.80;;;0.82;;
52368;SDS011;38298;50.346;3.526;2023-08-08T09:33:56;6.35;;;1.02;;
52368;SDS011;38298;50.346;3.526;2023-08-08T09:36:22;4.88;;;1.00;;
52368;SDS011;38298;50.346;3.526;2023-08-08T09:38:48;6.68;;;1.77;;
52368;SDS011;38298;50.346;3.526;2023-08-08T09:41:14;6.80;;;0.95;;
52368;SDS011;38298;50.346;3.526;2023-08-08T09:43:44;3.65;;;0.85;;
52368;SDS011;38298;50.346;3.526;2023-08-08T09:46:10;9.57;;;0.97;;
52368;SDS011;38298;50.346;3.526;2023-08-08T09:48:36;6.50;;;1.02;;
52368;SDS011;38298;50.346;3.526;2023-08-08T09:51:04;7.53;;;1.27;;
52368;SDS011;38298;50.346;3.526;2023-08-08T09:53:31;6.30;;;1.13;;
52368;SDS011;38298;50.346;3.526;2023-08-08T09:55:57;5.82;;;0.80;;
52368;SDS011;38298;50.346;3.526;2023-08-08T09:58:23;3.13;;;0.95;;
52368;SDS011;38298;50.346;3.526;2023-08-08T10:00:49;5.55;;;1.02;;
52368;SDS011;38298;50.346;3.526;2023-08-08T10:03:16;2.42;;;1.10;;
52368;SDS011;38298;50.346;3.526;2023-08-08T10:05:42;7.55;;;1.50;;
52368;SDS011;38298;50.346;3.526;2023-08-08T10:08:08;5.20;;;0.90;;
52368;SDS011;38298;50.346;3.526;2023-08-08T10:10:35;5.43;;;0.90;;
52368;SDS011;38298;50.346;3.526;2023-08-08T10:13:02;1.58;;;0.77;;
52368;SDS011;38298;50.346;3.526;2023-08-08T10:15:29;3.00;;;1.08;;
52368;SDS011;38298;50.346;3.526;2023-08-08T10:17:56;1.17;;;0.60;;
52368;SDS011;38298;50.346;3.526;2023-08-08T10:20:26;4.15;;;0.88;;
52368;SDS011;38298;50.346;3.526;2023-08-08T10:22:53;6.53;;;0.90;;
52368;SDS011;38298;50.346;3.526;2023-08-08T10:25:24;4.53;;;0.98;;
52368;SDS011;38298;50.346;3.526;2023-08-08T10:28:05;5.43;;;1.08;;
52368;SDS011;38298;50.346;3.526;2023-08-08T10:33:16;4.32;;;0.80;;
52368;SDS011;38298;50.346;3.526;2023-08-08T10:35:50;2.28;;;0.93;;
52368;SDS011;38298;50.346;3.526;2023-08-08T10:38:16;1.38;;;0.60;;
52368;SDS011;38298;50.346;3.526;2023-08-08T10:40:42;1.73;;;0.70;;
52368;SDS011;38298;50.346;3.526;2023-08-08T10:43:09;7.90;;;0.73;;
52368;SDS011;38298;50.346;3.526;2023-08-08T10:45:40;2.17;;;0.65;;
52368;SDS011;38298;50.346;3.526;2023-08-08T10:48:08;2.40;;;0.63;;
52368;SDS011;38298;50.346;3.526;2023-08-08T10:50:37;2.30;;;0.73;;
52368;SDS011;38298;50.346;3.526;2023-08-08T10:53:03;3.08;;;0.77;;
52368;SDS011;38298;50.346;3.526;2023-08-08T10:55:36;3.25;;;0.60;;
52368;SDS011;38298;50.346;3.526;2023-08-08T10:58:09;2.65;;;0.60;;
52368;SDS011;38298;50.346;3.526;2023-08-08T11:00:36;1.65;;;0.70;;
52368;SDS011;38298;50.346;3.526;2023-08-08T11:03:04;2.47;;;0.70;;
52368;SDS011;38298;50.346;3.526;2023-08-08T11:05:31;1.58;;;0.70;;
52368;SDS011;38298;50.346;3.526;2023-08-08T11:07:58;5.07;;;0.90;;
52368;SDS011;38298;50.346;3.526;2023-08-08T11:10:24;0.98;;;0.50;;
52368;SDS011;38298;50.346;3.526;2023-08-08T11:13:06;2.83;;;0.70;;
52368;SDS011;38298;50.346;3.526;2023-08-08T11:15:32;3.75;;;0.52;;
52368;SDS011;38298;50.346;3.526;2023-08-08T11:17:59;3.53;;;0.55;;
52368;SDS011;38298;50.346;3.526;2023-08-08T11:20:28;1.65;;;0.40;;
52368;SDS011;38298;50.346;3.526;2023-08-08T11:22:55;2.05;;;0.60;;
52368;SDS011;38298;50.346;3.526;2023-08-08T11:25:22;1.08;;;0.45;;
52368;SDS011;38298;50.346;3.526;2023-08-08T11:27:51;1.95;;;0.50;;
52368;SDS011;38298;50.346;3.526;2023-08-08T11:30:18;2.15;;;0.45;;
52368;SDS011;38298;50.346;3.526;2023-08-08T11:32:45;1.25;;;0.50;;
52368;SDS011;38298;50.346;3.526;2023-08-08T11:35:11;4.38;;;0.65;;
52368;SDS011;38298;50.346;3.526;2023-08-08T11:37:37;1.58;;;0.77;;
52368;SDS011;38298;50.346;3.526;2023-08-08T11:40:04;2.72;;;0.40;;
52368;SDS011;38298;50.346;3.526;2023-08-08T11:42:30;3.70;;;0.43;;
52368;SDS011;38298;50.346;3.526;2023-08-08T11:44:57;1.83;;;0.40;;
52368;SDS011;38298;50.346;3.526;2023-08-08T11:47:26;3.05;;;0.57;;
52368;SDS011;38298;50.346;3.526;2023-08-08T11:49:56;2.70;;;0.80;;
52368;SDS011;38298;50.346;3.526;2023-08-08T11:52:22;2.55;;;0.55;;
52368;SDS011;38298;50.346;3.526;2023-08-08T11:54:51;3.08;;;0.45;;
52368;SDS011;38298;50.346;3.526;2023-08-08T11:57:17;1.58;;;0.68;;
52368;SDS011;38298;50.346;3.526;2023-08-08T11:59:43;2.50;;;0.77;;
52368;SDS011;38298;50.346;3.526;2023-08-08T12:02:09;2.83;;;0.55;;
52368;SDS011;38298;50.346;3.526;2023-08-08T12:04:36;2.40;;;0.55;;
52368;SDS011;38298;50.346;3.526;2023-08-08T12:07:02;1.98;;;0.80;;
52368;SDS011;38298;50.346;3.526;2023-08-08T12:09:30;2.80;;;0.77;;
52368;SDS011;38298;50.346;3.526;2023-08-08T12:11:59;2.42;;;0.70;;
52368;SDS011;38298;50.346;3.526;2023-08-08T12:14:25;2.22;;;0.73;;
52368;SDS011;38298;50.346;3.526;2023-08-08T12:16:51;2.15;;;0.50;;
52368;SDS011;38298;50.346;3.526;2023-08-08T12:19:17;0.80;;;0.50;;
52368;SDS011;38298;50.346;3.526;2023-08-08T12:21:46;3.00;;;0.57;;
52368;SDS011;38298;50.346;3.526;2023-08-08T12:24:12;2.35;;;0.82;;
52368;SDS011;38298;50.346;3.526;2023-08-08T12:26:38;2.50;;;0.80;;
52368;SDS011;38298;50.346;3.526;2023-08-08T12:29:04;2.90;;;0.50;;
52368;SDS011;38298;50.346;3.526;2023-08-08T12:31:30;2.55;;;0.60;;
52368;SDS011;38298;50.346;3.526;2023-08-08T12:33:56;3.17;;;0.73;;
52368;SDS011;38298;50.346;3.526;2023-08-08T12:36:22;0.75;;;0.55;;
52368;SDS011;38298;50.346;3.526;2023-08-08T12:38:48;3.03;;;0.45;;
52368;SDS011;38298;50.346;3.526;2023-08-08T12:41:14;1.58;;;0.70;;
52368;SDS011;38298;50.346;3.526;2023-08-08T12:43:41;1.23;;;0.50;;
52368;SDS011;38298;50.346;3.526;2023-08-08T12:46:06;1.55;;;0.45;;
52368;SDS011;38298;50.346;3.526;2023-08-08T12:48:35;1.42;;;0.40;;
52368;SDS011;38298;50.346;3.526;2023-08-08T12:51:01;3.70;;;0.88;;
52368;SDS011;38298;50.346;3.526;2023-08-08T12:53:28;2.88;;;0.77;;
52368;SDS011;38298;50.346;3.526;2023-08-08T12:55:54;2.60;;;0.70;;
52368;SDS011;38298;50.346;3.526;2023-08-08T12:58:20;2.47;;;0.73;;
52368;SDS011;38298;50.346;3.526;2023-08-08T13:00:46;3.05;;;0.70;;
52368;SDS011;38298;50.346;3.526;2023-08-08T13:03:13;2.25;;;0.68;;
52368;SDS011;38298;50.346;3.526;2023-08-08T13:05:39;0.77;;;0.65;;
52368;SDS011;38298;50.346;3.526;2023-08-08T13:08:05;2.30;;;0.70;;
52368;SDS011;38298;50.346;3.526;2023-08-08T13:10:31;0.77;;;0.30;;
52368;SDS011;38298;50.346;3.526;2023-08-08T13:12:57;1.10;;;0.77;;
52368;SDS011;38298;50.346;3.526;2023-08-08T13:15:23;2.78;;;0.77;;
52368;SDS011;38298;50.346;3.526;2023-08-08T13:17:49;2.85;;;0.70;;
52368;SDS011;38298;50.346;3.526;2023-08-08T13:20:15;2.88;;;0.80;;
52368;SDS011;38298;50.346;3.526;2023-08-08T13:22:41;2.55;;;0.73;;
52368;SDS011;38298;50.346;3.526;2023-08-08T13:25:07;4.30;;;0.50;;
52368;SDS011;38298;50.346;3.526;2023-08-08T13:27:33;1.77;;;0.60;;
52368;SDS011;38298;50.346;3.526;2023-08-08T13:29:59;1.17;;;0.55;;
52368;SDS011;38298;50.346;3.526;2023-08-08T13:32:25;3.55;;;0.50;;
52368;SDS011;38298;50.346;3.526;2023-08-08T13:34:51;3.30;;;0.68;;
52368;SDS011;38298;50.346;3.526;2023-08-08T13:37:17;3.83;;;1.05;;
52368;SDS011;38298;50.346;3.526;2023-08-08T13:39:43;2.35;;;0.40;;
52368;SDS011;38298;50.346;3.526;2023-08-08T13:42:10;2.10;;;0.60;;
52368;SDS011;38298;50.346;3.526;2023-08-08T13:44:36;1.85;;;0.50;;
52368;SDS011;38298;50.346;3.526;2023-08-08T13:47:02;1.50;;;0.52;;
52368;SDS011;38298;50.346;3.526;2023-08-08T13:49:28;4.60;;;0.47;;
52368;SDS011;38298;50.346;3.526;2023-08-08T13:51:54;1.52;;;0.60;;
52368;SDS011;38298;50.346;3.526;2023-08-08T13:54:20;1.55;;;0.50;;
52368;SDS011;38298;50.346;3.526;2023-08-08T13:56:46;1.83;;;0.60;;
52368;SDS011;38298;50.346;3.526;2023-08-08T13:59:12;2.67;;;0.60;;
52368;SDS011;38298;50.346;3.526;2023-08-08T14:01:39;1.13;;;0.70;;
52368;SDS011;38298;50.346;3.526;2023-08-08T14:04:05;1.20;;;0.50;;
52368;SDS011;38298;50.346;3.526;2023-08-08T14:06:31;0.75;;;0.40;;
52368;SDS011;38298;50.346;3.526;2023-08-08T14:08:57;4.22;;;0.80;;
52368;SDS011;38298;50.346;3.526;2023-08-08T14:11:23;1.60;;;0.65;;
52368;SDS011;38298;50.346;3.526;2023-08-08T14:13:49;5.22;;;0.75;;
52368;SDS011;38298;50.346;3.526;2023-08-08T14:16:15;0.98;;;0.75;;
52368;SDS011;38298;50.346;3.526;2023-08-08T14:18:42;2.45;;;0.60;;
52368;SDS011;38298;50.346;3.526;2023-08-08T14:21:07;2.70;;;0.60;;
52368;SDS011;38298;50.346;3.526;2023-08-08T14:23:34;2.35;;;0.85;;
52368;SDS011;38298;50.346;3.526;2023-08-08T14:26:00;3.22;;;0.60;;
52368;SDS011;38298;50.346;3.526;2023-08-08T14:28:26;1.05;;;0.60;;
52368;SDS011;38298;50.346;3.526;2023-08-08T14:30:52;0.70;;;0.50;;
52368;SDS011;38298;50.346;3.526;2023-08-08T14:33:18;1.75;;;0.70;;
52368;SDS011;38298;50.346;3.526;2023-08-08T14:35:44;3.50;;;0.80;;
52368;SDS011;38298;50.346;3.526;2023-08-08T14:38:10;2.33;;;0.50;;
52368;SDS011;38298;50.346;3.526;2023-08-08T14:40:36;3.22;;;0.65;;
52368;SDS011;38298;50.346;3.526;2023-08-08T14:43:02;2.72;;;0.70;;
52368;SDS011;38298;50.346;3.526;2023-08-08T14:45:28;1.27;;;0.60;;
52368;SDS011;38298;50.346;3.526;2023-08-08T14:47:54;6.35;;;0.50;;